sensor_id;sensor_type;location;lat;lon;timestamp;P1;durP1;ratioP1;P2;durP2;ratioP2
5937;SDS011;2994;51.220;4.412;2022-12-24T00:01:11;20.20;;;7.57;;
5937;SDS011;2994;51.220;4.412;2022-12-24T00:03:37;21.47;;;7.70;;
5937;SDS011;2994;51.220;4.412;2022-12-24T00:06:05;17.07;;;6.60;;
5937;SDS011;2994;51.220;4.412;2022-12-24T00:08:41;21.47;;;7.03;;
5937;SDS011;2994;51.220;4.412;2022-12-24T00:11:06;16.83;;;7.10;;
5937;SDS011;2994;51.220;4.412;2022-12-24T00:13:32;18.27;;;7.03;;
5937;SDS011;2994;51.220;4.412;2022-12-24T00:15:58;22.73;;;7.27;;
5937;SDS011;2994;51.220;4.412;2022-12-24T00:18:24;21.13;;;7.50;;
5937;SDS011;2994;51.220;4.412;2022-12-24T00:20:49;17.90;;;7.23;;
5937;SDS011;2994;51.220;4.412;2022-12-24T00:23:15;18.17;;;6.70;;
5937;SDS011;2994;51.220;4.412;2022-12-24T00:25:41;21.13;;;7.77;;
5937;SDS011;2994;51.220;4.412;2022-12-24T00:28:07;20.57;;;7.00;;
5937;SDS011;2994;51.220;4.412;2022-12-24T00:30:33;18.70;;;7.20;;
5937;SDS011;2994;51.220;4.412;2022-12-24T00:32:58;20.97;;;7.47;;
5937;SDS011;2994;51.220;4.412;2022-12-24T00:35:24;15.10;;;6.10;;
5937;SDS011;2994;51.220;4.412;2022-12-24T00:37:49;18.33;;;6.73;;
5937;SDS011;2994;51.220;4.412;2022-12-24T00:40:15;16.37;;;6.40;;
5937;SDS011;2994;51.220;4.412;2022-12-24T00:42:41;23.80;;;7.73;;
5937;SDS011;2994;51.220;4.412;2022-12-24T00:45:07;22.40;;;8.40;;
5937;SDS011;2994;51.220;4.412;2022-12-24T00:47:37;24.63;;;7.43;;
5937;SDS011;2994;51.220;4.412;2022-12-24T00:50:03;28.17;;;9.43;;
5937;SDS011;2994;51.220;4.412;2022-12-24T00:52:29;20.97;;;8.67;;
5937;SDS011;2994;51.220;4.412;2022-12-24T00:54:54;22.13;;;7.20;;
5937;SDS011;2994;51.220;4.412;2022-12-24T00:57:20;18.33;;;7.67;;
5937;SDS011;2994;51.220;4.412;2022-12-24T00:59:45;22.60;;;6.73;;
5937;SDS011;2994;51.220;4.412;2022-12-24T01:02:13;18.90;;;6.40;;
5937;SDS011;2994;51.220;4.412;2022-12-24T01:04:42;18.37;;;6.97;;
5937;SDS011;2994;51.220;4.412;2022-12-24T01:07:26;28.90;;;8.23;;
5937;SDS011;2994;51.220;4.412;2022-12-24T01:09:52;21.67;;;6.20;;
5937;SDS011;2994;51.220;4.412;2022-12-24T01:12:17;19.27;;;6.30;;
5937;SDS011;2994;51.220;4.412;2022-12-24T01:14:43;18.93;;;6.37;;
5937;SDS011;2994;51.220;4.412;2022-12-24T01:17:08;20.20;;;6.33;;
5937;SDS011;2994;51.220;4.412;2022-12-24T01:19:34;17.73;;;6.47;;
5937;SDS011;2994;51.220;4.412;2022-12-24T01:21:59;20.20;;;6.43;;
5937;SDS011;2994;51.220;4.412;2022-12-24T01:24:25;25.43;;;7.33;;
5937;SDS011;2994;51.220;4.412;2022-12-24T01:26:50;17.57;;;7.00;;
5937;SDS011;2994;51.220;4.412;2022-12-24T01:29:16;19.33;;;7.43;;
5937;SDS011;2994;51.220;4.412;2022-12-24T01:31:41;21.73;;;6.77;;
5937;SDS011;2994;51.220;4.412;2022-12-24T01:34:07;24.90;;;7.27;;
5937;SDS011;2994;51.220;4.412;2022-12-24T01:36:32;11.53;;;5.37;;
5937;SDS011;2994;51.220;4.412;2022-12-24T01:38:58;16.13;;;5.50;;
5937;SDS011;2994;51.220;4.412;2022-12-24T01:41:24;18.43;;;5.77;;
5937;SDS011;2994;51.220;4.412;2022-12-24T01:44:15;14.20;;;5.20;;
5937;SDS011;2994;51.220;4.412;2022-12-24T01:46:41;12.50;;;4.90;;
5937;SDS011;2994;51.220;4.412;2022-12-24T01:49:07;14.97;;;5.73;;
5937;SDS011;2994;51.220;4.412;2022-12-24T01:51:41;12.10;;;5.17;;
5937;SDS011;2994;51.220;4.412;2022-12-24T01:56:49;13.43;;;5.17;;
5937;SDS011;2994;51.220;4.412;2022-12-24T01:59:18;11.20;;;4.90;;
5937;SDS011;2994;51.220;4.412;2022-12-24T02:01:45;19.03;;;5.20;;
5937;SDS011;2994;51.220;4.412;2022-12-24T02:04:56;14.37;;;5.30;;
5937;SDS011;2994;51.220;4.412;2022-12-24T02:07:08;11.97;;;3.93;;
5937;SDS011;2994;51.220;4.412;2022-12-24T02:09:33;11.40;;;4.40;;
5937;SDS011;2994;51.220;4.412;2022-12-24T02:12:00;10.47;;;4.50;;
5937;SDS011;2994;51.220;4.412;2022-12-24T02:14:28;13.60;;;4.47;;
5937;SDS011;2994;51.220;4.412;2022-12-24T02:30:17;18.97;;;5.40;;
5937;SDS011;2994;51.220;4.412;2022-12-24T02:35:34;12.17;;;4.90;;
5937;SDS011;2994;51.220;4.412;2022-12-24T02:38:14;10.47;;;5.00;;
5937;SDS011;2994;51.220;4.412;2022-12-24T02:41:03;16.73;;;5.10;;
5937;SDS011;2994;51.220;4.412;2022-12-24T02:43:38;11.03;;;5.33;;
5937;SDS011;2994;51.220;4.412;2022-12-24T02:46:08;9.50;;;4.87;;
5937;SDS011;2994;51.220;4.412;2022-12-24T02:48:40;9.60;;;5.70;;
5937;SDS011;2994;51.220;4.412;2022-12-24T02:51:08;19.50;;;6.03;;
5937;SDS011;2994;51.220;4.412;2022-12-24T02:53:35;13.53;;;6.20;;
5937;SDS011;2994;51.220;4.412;2022-12-24T02:56:11;15.67;;;6.00;;
5937;SDS011;2994;51.220;4.412;2022-12-24T03:12:32;18.63;;;5.73;;
5937;SDS011;2994;51.220;4.412;2022-12-24T03:15:16;21.30;;;6.53;;
5937;SDS011;2994;51.220;4.412;2022-12-24T03:17:45;14.13;;;5.40;;
5937;SDS011;2994;51.220;4.412;2022-12-24T03:20:13;17.50;;;6.13;;
5937;SDS011;2994;51.220;4.412;2022-12-24T03:22:44;15.80;;;5.47;;
5937;SDS011;2994;51.220;4.412;2022-12-24T03:25:11;13.27;;;6.17;;
5937;SDS011;2994;51.220;4.412;2022-12-24T03:27:36;13.73;;;4.87;;
5937;SDS011;2994;51.220;4.412;2022-12-24T03:30:03;12.10;;;5.03;;
5937;SDS011;2994;51.220;4.412;2022-12-24T03:32:32;17.90;;;6.83;;
5937;SDS011;2994;51.220;4.412;2022-12-24T03:34:58;16.30;;;5.33;;
5937;SDS011;2994;51.220;4.412;2022-12-24T03:37:24;13.03;;;4.77;;
5937;SDS011;2994;51.220;4.412;2022-12-24T03:39:50;13.50;;;5.60;;
5937;SDS011;2994;51.220;4.412;2022-12-24T03:42:16;19.27;;;6.07;;
5937;SDS011;2994;51.220;4.412;2022-12-24T03:44:41;11.33;;;5.17;;
5937;SDS011;2994;51.220;4.412;2022-12-24T03:47:07;18.03;;;6.43;;
5937;SDS011;2994;51.220;4.412;2022-12-24T03:49:32;11.07;;;4.80;;
5937;SDS011;2994;51.220;4.412;2022-12-24T03:51:58;14.83;;;4.93;;
5937;SDS011;2994;51.220;4.412;2022-12-24T03:54:23;18.10;;;5.00;;
5937;SDS011;2994;51.220;4.412;2022-12-24T03:56:49;18.47;;;5.33;;
5937;SDS011;2994;51.220;4.412;2022-12-24T03:59:17;21.40;;;6.27;;
5937;SDS011;2994;51.220;4.412;2022-12-24T04:01:46;19.57;;;6.33;;
5937;SDS011;2994;51.220;4.412;2022-12-24T04:04:11;12.70;;;4.87;;
5937;SDS011;2994;51.220;4.412;2022-12-24T04:06:36;13.20;;;4.47;;
5937;SDS011;2994;51.220;4.412;2022-12-24T04:09:02;13.80;;;5.07;;
5937;SDS011;2994;51.220;4.412;2022-12-24T04:11:31;15.70;;;6.23;;
5937;SDS011;2994;51.220;4.412;2022-12-24T04:13:57;14.73;;;4.63;;
5937;SDS011;2994;51.220;4.412;2022-12-24T04:16:23;14.80;;;5.43;;
5937;SDS011;2994;51.220;4.412;2022-12-24T04:18:48;8.63;;;4.73;;
5937;SDS011;2994;51.220;4.412;2022-12-24T04:21:14;16.10;;;5.17;;
5937;SDS011;2994;51.220;4.412;2022-12-24T04:23:40;13.70;;;4.60;;
5937;SDS011;2994;51.220;4.412;2022-12-24T04:26:09;14.73;;;5.53;;
5937;SDS011;2994;51.220;4.412;2022-12-24T04:28:36;19.67;;;5.93;;
5937;SDS011;2994;51.220;4.412;2022-12-24T04:31:07;10.43;;;5.80;;
5937;SDS011;2994;51.220;4.412;2022-12-24T04:33:35;14.93;;;6.00;;
5937;SDS011;2994;51.220;4.412;2022-12-24T04:36:02;14.10;;;5.77;;
5937;SDS011;2994;51.220;4.412;2022-12-24T04:38:29;12.40;;;5.40;;
5937;SDS011;2994;51.220;4.412;2022-12-24T04:40:59;13.60;;;5.83;;
5937;SDS011;2994;51.220;4.412;2022-12-24T04:43:25;12.30;;;5.00;;
5937;SDS011;2994;51.220;4.412;2022-12-24T04:45:51;16.10;;;5.10;;
5937;SDS011;2994;51.220;4.412;2022-12-24T04:48:19;14.83;;;5.30;;
5937;SDS011;2994;51.220;4.412;2022-12-24T04:50:44;18.30;;;6.33;;
5937;SDS011;2994;51.220;4.412;2022-12-24T04:53:10;17.67;;;6.83;;
5937;SDS011;2994;51.220;4.412;2022-12-24T04:55:47;14.20;;;5.43;;
5937;SDS011;2994;51.220;4.412;2022-12-24T04:58:13;18.10;;;5.67;;
5937;SDS011;2994;51.220;4.412;2022-12-24T05:00:39;11.37;;;5.07;;
5937;SDS011;2994;51.220;4.412;2022-12-24T05:03:05;18.23;;;6.27;;
5937;SDS011;2994;51.220;4.412;2022-12-24T05:05:30;15.80;;;6.00;;
5937;SDS011;2994;51.220;4.412;2022-12-24T05:07:56;15.23;;;5.80;;
5937;SDS011;2994;51.220;4.412;2022-12-24T05:10:21;16.10;;;6.50;;
5937;SDS011;2994;51.220;4.412;2022-12-24T05:12:50;21.73;;;6.10;;
5937;SDS011;2994;51.220;4.412;2022-12-24T05:15:15;15.93;;;5.60;;
5937;SDS011;2994;51.220;4.412;2022-12-24T05:17:41;22.13;;;6.53;;
5937;SDS011;2994;51.220;4.412;2022-12-24T05:20:07;14.10;;;5.80;;
5937;SDS011;2994;51.220;4.412;2022-12-24T05:22:32;23.17;;;5.53;;
5937;SDS011;2994;51.220;4.412;2022-12-24T05:25:16;17.60;;;6.23;;
5937;SDS011;2994;51.220;4.412;2022-12-24T05:28:03;20.03;;;7.20;;
5937;SDS011;2994;51.220;4.412;2022-12-24T05:30:29;13.67;;;5.73;;
5937;SDS011;2994;51.220;4.412;2022-12-24T05:32:54;12.83;;;5.87;;
5937;SDS011;2994;51.220;4.412;2022-12-24T05:35:20;16.53;;;5.50;;
5937;SDS011;2994;51.220;4.412;2022-12-24T05:37:45;13.70;;;5.67;;
5937;SDS011;2994;51.220;4.412;2022-12-24T05:40:11;13.50;;;5.90;;
5937;SDS011;2994;51.220;4.412;2022-12-24T05:42:36;21.63;;;6.83;;
5937;SDS011;2994;51.220;4.412;2022-12-24T05:45:02;16.47;;;5.60;;
5937;SDS011;2994;51.220;4.412;2022-12-24T05:47:28;17.47;;;6.13;;
5937;SDS011;2994;51.220;4.412;2022-12-24T05:49:53;17.53;;;6.10;;
5937;SDS011;2994;51.220;4.412;2022-12-24T05:52:18;14.23;;;6.37;;
5937;SDS011;2994;51.220;4.412;2022-12-24T05:54:44;20.10;;;6.20;;
5937;SDS011;2994;51.220;4.412;2022-12-24T05:57:09;19.47;;;6.57;;
5937;SDS011;2994;51.220;4.412;2022-12-24T05:59:35;16.50;;;7.00;;
5937;SDS011;2994;51.220;4.412;2022-12-24T06:02:00;18.77;;;5.83;;
5937;SDS011;2994;51.220;4.412;2022-12-24T06:04:26;23.80;;;6.63;;
5937;SDS011;2994;51.220;4.412;2022-12-24T06:06:51;21.07;;;6.53;;
5937;SDS011;2994;51.220;4.412;2022-12-24T06:09:17;15.60;;;5.70;;
5937;SDS011;2994;51.220;4.412;2022-12-24T06:11:42;13.03;;;4.77;;
5937;SDS011;2994;51.220;4.412;2022-12-24T06:14:10;20.67;;;6.50;;
5937;SDS011;2994;51.220;4.412;2022-12-24T06:16:36;12.37;;;5.77;;
5937;SDS011;2994;51.220;4.412;2022-12-24T06:19:01;13.30;;;5.53;;
5937;SDS011;2994;51.220;4.412;2022-12-24T06:21:27;13.67;;;5.30;;
5937;SDS011;2994;51.220;4.412;2022-12-24T06:23:52;18.13;;;6.73;;
5937;SDS011;2994;51.220;4.412;2022-12-24T06:26:19;16.70;;;6.03;;
5937;SDS011;2994;51.220;4.412;2022-12-24T06:28:46;17.23;;;5.57;;
5937;SDS011;2994;51.220;4.412;2022-12-24T06:31:13;18.03;;;5.70;;
5937;SDS011;2994;51.220;4.412;2022-12-24T06:33:40;13.10;;;6.03;;
5937;SDS011;2994;51.220;4.412;2022-12-24T06:36:07;14.93;;;5.53;;
5937;SDS011;2994;51.220;4.412;2022-12-24T06:38:34;14.57;;;5.53;;
5937;SDS011;2994;51.220;4.412;2022-12-24T06:41:03;18.13;;;5.53;;
5937;SDS011;2994;51.220;4.412;2022-12-24T06:43:30;16.13;;;5.20;;
5937;SDS011;2994;51.220;4.412;2022-12-24T06:45:55;15.73;;;7.23;;
5937;SDS011;2994;51.220;4.412;2022-12-24T06:48:21;19.30;;;6.73;;
5937;SDS011;2994;51.220;4.412;2022-12-24T06:50:46;13.67;;;4.80;;
5937;SDS011;2994;51.220;4.412;2022-12-24T06:53:12;13.47;;;5.73;;
5937;SDS011;2994;51.220;4.412;2022-12-24T06:55:37;13.90;;;5.60;;
5937;SDS011;2994;51.220;4.412;2022-12-24T06:58:03;13.70;;;5.30;;
5937;SDS011;2994;51.220;4.412;2022-12-24T07:00:28;14.17;;;4.80;;
5937;SDS011;2994;51.220;4.412;2022-12-24T07:02:54;12.37;;;5.80;;
5937;SDS011;2994;51.220;4.412;2022-12-24T07:05:19;14.57;;;6.00;;
5937;SDS011;2994;51.220;4.412;2022-12-24T07:07:48;13.40;;;5.63;;
5937;SDS011;2994;51.220;4.412;2022-12-24T07:10:14;17.60;;;6.03;;
5937;SDS011;2994;51.220;4.412;2022-12-24T07:12:41;14.03;;;6.20;;
5937;SDS011;2994;51.220;4.412;2022-12-24T07:15:07;16.93;;;5.40;;
5937;SDS011;2994;51.220;4.412;2022-12-24T07:17:34;16.40;;;5.50;;
5937;SDS011;2994;51.220;4.412;2022-12-24T07:19:59;15.93;;;5.70;;
5937;SDS011;2994;51.220;4.412;2022-12-24T07:22:24;17.27;;;5.30;;
5937;SDS011;2994;51.220;4.412;2022-12-24T07:24:50;17.67;;;6.27;;
5937;SDS011;2994;51.220;4.412;2022-12-24T07:27:15;13.80;;;6.20;;
5937;SDS011;2994;51.220;4.412;2022-12-24T07:29:41;17.03;;;6.17;;
5937;SDS011;2994;51.220;4.412;2022-12-24T07:32:07;13.70;;;5.90;;
5937;SDS011;2994;51.220;4.412;2022-12-24T07:34:32;12.17;;;6.83;;
5937;SDS011;2994;51.220;4.412;2022-12-24T07:36:58;9.63;;;5.50;;
5937;SDS011;2994;51.220;4.412;2022-12-24T07:39:24;18.67;;;6.70;;
5937;SDS011;2994;51.220;4.412;2022-12-24T07:41:49;17.30;;;6.80;;
5937;SDS011;2994;51.220;4.412;2022-12-24T07:44:15;22.47;;;6.80;;
5937;SDS011;2994;51.220;4.412;2022-12-24T07:46:41;14.53;;;5.80;;
5937;SDS011;2994;51.220;4.412;2022-12-24T07:49:07;20.37;;;6.13;;
5937;SDS011;2994;51.220;4.412;2022-12-24T07:51:33;22.13;;;6.80;;
5937;SDS011;2994;51.220;4.412;2022-12-24T07:53:58;16.87;;;7.10;;
5937;SDS011;2994;51.220;4.412;2022-12-24T07:56:24;17.70;;;6.70;;
5937;SDS011;2994;51.220;4.412;2022-12-24T07:58:50;14.10;;;6.20;;
5937;SDS011;2994;51.220;4.412;2022-12-24T08:01:16;20.07;;;6.50;;
5937;SDS011;2994;51.220;4.412;2022-12-24T08:03:42;17.67;;;7.10;;
5937;SDS011;2994;51.220;4.412;2022-12-24T08:06:07;17.27;;;6.00;;
5937;SDS011;2994;51.220;4.412;2022-12-24T08:08:33;12.80;;;6.10;;
5937;SDS011;2994;51.220;4.412;2022-12-24T08:11:03;14.20;;;5.50;;
5937;SDS011;2994;51.220;4.412;2022-12-24T08:13:31;17.97;;;7.03;;
5937;SDS011;2994;51.220;4.412;2022-12-24T08:15:57;18.43;;;5.63;;
5937;SDS011;2994;51.220;4.412;2022-12-24T08:18:23;13.13;;;6.23;;
5937;SDS011;2994;51.220;4.412;2022-12-24T08:20:49;14.47;;;6.33;;
5937;SDS011;2994;51.220;4.412;2022-12-24T08:23:15;19.23;;;7.33;;
5937;SDS011;2994;51.220;4.412;2022-12-24T08:25:41;12.80;;;6.03;;
5937;SDS011;2994;51.220;4.412;2022-12-24T08:28:10;16.83;;;7.57;;
5937;SDS011;2994;51.220;4.412;2022-12-24T08:30:36;18.87;;;6.43;;
5937;SDS011;2994;51.220;4.412;2022-12-24T08:33:01;14.03;;;6.70;;
5937;SDS011;2994;51.220;4.412;2022-12-24T08:35:32;16.27;;;6.17;;
5937;SDS011;2994;51.220;4.412;2022-12-24T08:37:58;13.07;;;6.27;;
5937;SDS011;2994;51.220;4.412;2022-12-24T08:40:24;16.43;;;7.60;;
5937;SDS011;2994;51.220;4.412;2022-12-24T08:42:50;19.20;;;6.23;;
5937;SDS011;2994;51.220;4.412;2022-12-24T08:45:16;17.70;;;6.10;;
5937;SDS011;2994;51.220;4.412;2022-12-24T08:47:42;20.97;;;6.53;;
5937;SDS011;2994;51.220;4.412;2022-12-24T08:50:10;14.13;;;6.27;;
5937;SDS011;2994;51.220;4.412;2022-12-24T08:52:36;17.57;;;6.13;;
5937;SDS011;2994;51.220;4.412;2022-12-24T08:55:02;13.77;;;6.60;;
5937;SDS011;2994;51.220;4.412;2022-12-24T08:57:28;16.97;;;5.87;;
5937;SDS011;2994;51.220;4.412;2022-12-24T08:59:53;15.23;;;5.60;;
5937;SDS011;2994;51.220;4.412;2022-12-24T09:02:19;15.37;;;6.10;;
5937;SDS011;2994;51.220;4.412;2022-12-24T09:04:44;20.37;;;6.87;;
5937;SDS011;2994;51.220;4.412;2022-12-24T09:07:10;10.60;;;5.43;;
5937;SDS011;2994;51.220;4.412;2022-12-24T09:09:36;17.00;;;6.60;;
5937;SDS011;2994;51.220;4.412;2022-12-24T09:12:05;17.33;;;5.90;;
5937;SDS011;2994;51.220;4.412;2022-12-24T09:14:34;17.27;;;6.70;;
5937;SDS011;2994;51.220;4.412;2022-12-24T09:17:00;14.00;;;6.47;;
5937;SDS011;2994;51.220;4.412;2022-12-24T09:19:26;13.40;;;6.63;;
5937;SDS011;2994;51.220;4.412;2022-12-24T09:21:51;15.67;;;5.83;;
5937;SDS011;2994;51.220;4.412;2022-12-24T09:24:17;20.33;;;7.13;;
5937;SDS011;2994;51.220;4.412;2022-12-24T09:26:43;19.70;;;7.07;;
5937;SDS011;2994;51.220;4.412;2022-12-24T09:29:10;23.80;;;7.47;;
5937;SDS011;2994;51.220;4.412;2022-12-24T09:31:35;16.90;;;6.93;;
5937;SDS011;2994;51.220;4.412;2022-12-24T09:34:03;17.83;;;7.27;;
5937;SDS011;2994;51.220;4.412;2022-12-24T09:36:29;13.00;;;5.23;;
5937;SDS011;2994;51.220;4.412;2022-12-24T09:38:54;14.50;;;5.63;;
5937;SDS011;2994;51.220;4.412;2022-12-24T09:47:04;13.73;;;6.70;;
5937;SDS011;2994;51.220;4.412;2022-12-24T09:49:42;20.83;;;6.40;;
5937;SDS011;2994;51.220;4.412;2022-12-24T09:52:11;23.43;;;5.90;;
5937;SDS011;2994;51.220;4.412;2022-12-24T09:54:42;11.63;;;5.43;;
5937;SDS011;2994;51.220;4.412;2022-12-24T09:57:36;20.20;;;7.23;;
5937;SDS011;2994;51.220;4.412;2022-12-24T10:00:05;23.23;;;7.73;;
5937;SDS011;2994;51.220;4.412;2022-12-24T10:02:41;14.93;;;6.13;;
5937;SDS011;2994;51.220;4.412;2022-12-24T10:05:12;14.77;;;7.27;;
5937;SDS011;2994;51.220;4.412;2022-12-24T10:13:15;17.37;;;6.47;;
5937;SDS011;2994;51.220;4.412;2022-12-24T10:15:53;19.20;;;5.90;;
5937;SDS011;2994;51.220;4.412;2022-12-24T10:18:34;16.73;;;5.90;;
5937;SDS011;2994;51.220;4.412;2022-12-24T10:24:05;15.60;;;6.53;;
5937;SDS011;2994;51.220;4.412;2022-12-24T10:29:55;15.57;;;5.60;;
5937;SDS011;2994;51.220;4.412;2022-12-24T10:34:44;15.43;;;6.53;;
5937;SDS011;2994;51.220;4.412;2022-12-24T10:37:24;15.00;;;6.37;;
5937;SDS011;2994;51.220;4.412;2022-12-24T10:39:52;10.23;;;5.10;;
5937;SDS011;2994;51.220;4.412;2022-12-24T10:42:19;19.47;;;7.10;;
5937;SDS011;2994;51.220;4.412;2022-12-24T10:44:49;13.83;;;6.70;;
5937;SDS011;2994;51.220;4.412;2022-12-24T10:47:16;14.17;;;6.60;;
5937;SDS011;2994;51.220;4.412;2022-12-24T10:49:44;10.40;;;5.60;;
5937;SDS011;2994;51.220;4.412;2022-12-24T10:52:20;18.03;;;6.90;;
5937;SDS011;2994;51.220;4.412;2022-12-24T10:55:09;12.87;;;5.80;;
5937;SDS011;2994;51.220;4.412;2022-12-24T10:57:41;15.97;;;7.67;;
5937;SDS011;2994;51.220;4.412;2022-12-24T11:00:19;19.17;;;6.30;;
5937;SDS011;2994;51.220;4.412;2022-12-24T11:02:46;15.00;;;6.20;;
5937;SDS011;2994;51.220;4.412;2022-12-24T11:05:29;14.37;;;5.93;;
5937;SDS011;2994;51.220;4.412;2022-12-24T11:10:53;23.03;;;6.33;;
5937;SDS011;2994;51.220;4.412;2022-12-24T11:13:26;20.50;;;6.70;;
5937;SDS011;2994;51.220;4.412;2022-12-24T11:16:01;16.13;;;7.17;;
5937;SDS011;2994;51.220;4.412;2022-12-24T11:18:33;22.00;;;7.80;;
5937;SDS011;2994;51.220;4.412;2022-12-24T11:21:08;17.30;;;7.00;;
5937;SDS011;2994;51.220;4.412;2022-12-24T11:23:33;18.73;;;7.20;;
5937;SDS011;2994;51.220;4.412;2022-12-24T11:25:59;24.40;;;7.93;;
5937;SDS011;2994;51.220;4.412;2022-12-24T11:28:27;20.93;;;8.27;;
5937;SDS011;2994;51.220;4.412;2022-12-24T11:33:56;17.30;;;7.37;;
5937;SDS011;2994;51.220;4.412;2022-12-24T11:36:23;17.67;;;7.67;;
5937;SDS011;2994;51.220;4.412;2022-12-24T11:38:56;21.10;;;8.67;;
5937;SDS011;2994;51.220;4.412;2022-12-24T11:44:00;13.93;;;7.30;;
5937;SDS011;2994;51.220;4.412;2022-12-24T11:46:36;18.77;;;7.07;;
5937;SDS011;2994;51.220;4.412;2022-12-24T11:51:35;21.50;;;7.03;;
5937;SDS011;2994;51.220;4.412;2022-12-24T11:54:22;14.13;;;6.90;;
5937;SDS011;2994;51.220;4.412;2022-12-24T11:56:52;16.17;;;6.90;;
5937;SDS011;2994;51.220;4.412;2022-12-24T12:02:01;14.13;;;7.07;;
5937;SDS011;2994;51.220;4.412;2022-12-24T12:04:49;10.70;;;6.10;;
5937;SDS011;2994;51.220;4.412;2022-12-24T12:07:33;20.23;;;8.33;;
5937;SDS011;2994;51.220;4.412;2022-12-24T12:12:37;18.10;;;8.00;;
5937;SDS011;2994;51.220;4.412;2022-12-24T12:15:14;16.23;;;7.60;;
5937;SDS011;2994;51.220;4.412;2022-12-24T12:17:50;14.33;;;8.13;;
5937;SDS011;2994;51.220;4.412;2022-12-24T12:20:45;18.07;;;8.73;;
5937;SDS011;2994;51.220;4.412;2022-12-24T12:27:36;18.13;;;7.57;;
5937;SDS011;2994;51.220;4.412;2022-12-24T12:30:41;18.87;;;7.77;;
5937;SDS011;2994;51.220;4.412;2022-12-24T12:33:38;16.00;;;7.97;;
5937;SDS011;2994;51.220;4.412;2022-12-24T12:36:29;15.13;;;7.27;;
5937;SDS011;2994;51.220;4.412;2022-12-24T12:38:59;23.27;;;8.50;;
5937;SDS011;2994;51.220;4.412;2022-12-24T12:47:42;24.60;;;7.83;;
5937;SDS011;2994;51.220;4.412;2022-12-24T13:22:12;13.40;;;6.60;;
5937;SDS011;2994;51.220;4.412;2022-12-24T13:24:44;22.07;;;7.93;;
5937;SDS011;2994;51.220;4.412;2022-12-24T13:27:16;11.90;;;5.50;;
5937;SDS011;2994;51.220;4.412;2022-12-24T13:29:57;14.60;;;7.07;;
5937;SDS011;2994;51.220;4.412;2022-12-24T13:32:39;15.90;;;8.33;;
5937;SDS011;2994;51.220;4.412;2022-12-24T13:37:44;20.43;;;7.53;;
5937;SDS011;2994;51.220;4.412;2022-12-24T13:47:54;19.00;;;7.03;;
5937;SDS011;2994;51.220;4.412;2022-12-24T13:53:21;17.07;;;6.43;;
5937;SDS011;2994;51.220;4.412;2022-12-24T13:55:57;13.37;;;6.70;;
5937;SDS011;2994;51.220;4.412;2022-12-24T13:58:42;15.77;;;7.43;;
5937;SDS011;2994;51.220;4.412;2022-12-24T14:01:17;27.07;;;7.47;;
5937;SDS011;2994;51.220;4.412;2022-12-24T14:03:49;16.60;;;6.37;;
5937;SDS011;2994;51.220;4.412;2022-12-24T14:06:31;20.50;;;7.73;;
5937;SDS011;2994;51.220;4.412;2022-12-24T14:09:12;21.30;;;7.13;;
5937;SDS011;2994;51.220;4.412;2022-12-24T14:14:33;10.60;;;6.60;;
5937;SDS011;2994;51.220;4.412;2022-12-24T14:17:11;14.77;;;7.03;;
5937;SDS011;2994;51.220;4.412;2022-12-24T14:19:52;23.20;;;6.77;;
5937;SDS011;2994;51.220;4.412;2022-12-24T14:22:33;18.47;;;6.13;;
5937;SDS011;2994;51.220;4.412;2022-12-24T14:30:34;18.10;;;6.37;;
5937;SDS011;2994;51.220;4.412;2022-12-24T14:33:01;17.00;;;7.23;;
5937;SDS011;2994;51.220;4.412;2022-12-24T14:35:36;17.90;;;7.10;;
5937;SDS011;2994;51.220;4.412;2022-12-24T14:38:09;11.67;;;7.10;;
5937;SDS011;2994;51.220;4.412;2022-12-24T14:41:00;20.30;;;6.27;;
5937;SDS011;2994;51.220;4.412;2022-12-24T14:43:55;19.70;;;7.00;;
5937;SDS011;2994;51.220;4.412;2022-12-24T14:49:52;15.13;;;7.90;;
5937;SDS011;2994;51.220;4.412;2022-12-24T15:00:48;15.23;;;8.20;;
5937;SDS011;2994;51.220;4.412;2022-12-24T15:03:17;12.30;;;6.60;;
5937;SDS011;2994;51.220;4.412;2022-12-24T15:05:45;15.83;;;7.07;;
5937;SDS011;2994;51.220;4.412;2022-12-24T15:08:27;14.50;;;6.30;;
5937;SDS011;2994;51.220;4.412;2022-12-24T15:11:03;13.43;;;6.37;;
5937;SDS011;2994;51.220;4.412;2022-12-24T15:13:39;14.47;;;6.20;;
5937;SDS011;2994;51.220;4.412;2022-12-24T15:16:08;14.27;;;6.60;;
5937;SDS011;2994;51.220;4.412;2022-12-24T15:18:46;13.43;;;6.10;;
5937;SDS011;2994;51.220;4.412;2022-12-24T15:24:44;13.70;;;6.27;;
5937;SDS011;2994;51.220;4.412;2022-12-24T15:27:13;12.47;;;6.20;;
5937;SDS011;2994;51.220;4.412;2022-12-24T15:29:46;18.13;;;6.13;;
5937;SDS011;2994;51.220;4.412;2022-12-24T15:32:14;16.93;;;7.30;;
5937;SDS011;2994;51.220;4.412;2022-12-24T15:34:48;19.00;;;7.90;;
5937;SDS011;2994;51.220;4.412;2022-12-24T15:37:16;15.10;;;8.17;;
5937;SDS011;2994;51.220;4.412;2022-12-24T15:39:57;15.63;;;7.37;;
5937;SDS011;2994;51.220;4.412;2022-12-24T15:42:30;16.00;;;6.80;;
5937;SDS011;2994;51.220;4.412;2022-12-24T15:44:58;16.27;;;6.77;;
5937;SDS011;2994;51.220;4.412;2022-12-24T15:47:29;15.23;;;8.47;;
5937;SDS011;2994;51.220;4.412;2022-12-24T15:50:17;15.33;;;6.97;;
5937;SDS011;2994;51.220;4.412;2022-12-24T15:52:46;14.70;;;7.13;;
5937;SDS011;2994;51.220;4.412;2022-12-24T15:57:53;11.43;;;6.80;;
5937;SDS011;2994;51.220;4.412;2022-12-24T16:00:20;14.67;;;7.57;;
5937;SDS011;2994;51.220;4.412;2022-12-24T16:05:58;13.70;;;6.50;;
5937;SDS011;2994;51.220;4.412;2022-12-24T16:08:30;15.10;;;7.30;;
5937;SDS011;2994;51.220;4.412;2022-12-24T16:16:45;18.53;;;7.83;;
5937;SDS011;2994;51.220;4.412;2022-12-24T16:19:23;12.70;;;7.20;;
5937;SDS011;2994;51.220;4.412;2022-12-24T16:21:55;18.80;;;7.70;;
5937;SDS011;2994;51.220;4.412;2022-12-24T16:24:23;15.67;;;7.20;;
5937;SDS011;2994;51.220;4.412;2022-12-24T16:26:52;11.30;;;8.13;;
5937;SDS011;2994;51.220;4.412;2022-12-24T16:29:18;13.27;;;7.50;;
5937;SDS011;2994;51.220;4.412;2022-12-24T16:31:45;15.47;;;8.10;;
5937;SDS011;2994;51.220;4.412;2022-12-24T16:34:13;17.10;;;7.90;;
5937;SDS011;2994;51.220;4.412;2022-12-24T16:36:40;20.20;;;9.20;;
5937;SDS011;2994;51.220;4.412;2022-12-24T16:39:18;21.10;;;9.63;;
5937;SDS011;2994;51.220;4.412;2022-12-24T16:41:58;16.60;;;9.83;;
5937;SDS011;2994;51.220;4.412;2022-12-24T16:44:44;14.20;;;8.93;;
5937;SDS011;2994;51.220;4.412;2022-12-24T16:47:14;17.70;;;10.23;;
5937;SDS011;2994;51.220;4.412;2022-12-24T16:49:43;16.60;;;9.53;;
5937;SDS011;2994;51.220;4.412;2022-12-24T16:52:16;18.93;;;10.60;;
5937;SDS011;2994;51.220;4.412;2022-12-24T16:54:46;24.33;;;10.00;;
5937;SDS011;2994;51.220;4.412;2022-12-24T16:57:15;17.70;;;10.23;;
5937;SDS011;2994;51.220;4.412;2022-12-24T16:59:40;20.13;;;10.10;;
5937;SDS011;2994;51.220;4.412;2022-12-24T17:02:06;20.30;;;9.00;;
5937;SDS011;2994;51.220;4.412;2022-12-24T17:04:37;17.53;;;9.43;;
5937;SDS011;2994;51.220;4.412;2022-12-24T17:07:03;19.07;;;9.90;;
5937;SDS011;2994;51.220;4.412;2022-12-24T17:09:29;16.20;;;9.23;;
5937;SDS011;2994;51.220;4.412;2022-12-24T17:11:54;13.57;;;9.33;;
5937;SDS011;2994;51.220;4.412;2022-12-24T17:14:20;19.73;;;9.80;;
5937;SDS011;2994;51.220;4.412;2022-12-24T17:16:46;19.10;;;11.13;;
5937;SDS011;2994;51.220;4.412;2022-12-24T17:19:11;20.30;;;10.47;;
5937;SDS011;2994;51.220;4.412;2022-12-24T17:21:37;18.53;;;10.33;;
5937;SDS011;2994;51.220;4.412;2022-12-24T17:24:02;18.97;;;9.93;;
5937;SDS011;2994;51.220;4.412;2022-12-24T17:26:28;20.73;;;10.97;;
5937;SDS011;2994;51.220;4.412;2022-12-24T17:28:54;17.40;;;11.50;;
5937;SDS011;2994;51.220;4.412;2022-12-24T17:31:20;19.13;;;10.67;;
5937;SDS011;2994;51.220;4.412;2022-12-24T17:33:47;21.30;;;9.30;;
5937;SDS011;2994;51.220;4.412;2022-12-24T17:36:13;20.53;;;10.33;;
5937;SDS011;2994;51.220;4.412;2022-12-24T17:38:39;25.40;;;12.03;;
5937;SDS011;2994;51.220;4.412;2022-12-24T17:41:06;20.17;;;10.27;;
5937;SDS011;2994;51.220;4.412;2022-12-24T17:43:34;20.97;;;10.77;;
5937;SDS011;2994;51.220;4.412;2022-12-24T17:46:03;16.97;;;9.00;;
5937;SDS011;2994;51.220;4.412;2022-12-24T17:48:30;14.23;;;9.20;;
5937;SDS011;2994;51.220;4.412;2022-12-24T17:50:55;15.50;;;9.03;;
5937;SDS011;2994;51.220;4.412;2022-12-24T17:53:21;16.57;;;9.13;;